sensor_id;sensor_type;location;lat;lon;timestamp;pressure;altitude;pressure_sealevel;temperature;humidity
32735;BME280;19112;51.076;3.706;2022-08-21T00:02:19;101624.19;;;17.65;66.10
32735;BME280;19112;51.076;3.706;2022-08-21T00:04:46;101650.56;;;17.54;66.44
32735;BME280;19112;51.076;3.706;2022-08-21T00:07:12;101626.66;;;17.54;66.59
32735;BME280;19112;51.076;3.706;2022-08-21T00:09:38;101615.03;;;17.47;66.87
32735;BME280;19112;51.076;3.706;2022-08-21T00:12:05;101504.34;;;16.90;66.89
32735;BME280;19112;51.076;3.706;2022-08-21T00:14:32;101636.59;;;17.67;66.83
32735;BME280;19112;51.076;3.706;2022-08-21T00:16:59;101653.44;;;17.68;67.17
32735;BME280;19112;51.076;3.706;2022-08-21T00:19:25;101648.97;;;17.65;67.04
32735;BME280;19112;51.076;3.706;2022-08-21T00:21:52;101478.41;;;16.74;67.25
32735;BME280;19112;51.076;3.706;2022-08-21T00:24:20;101501.59;;;16.86;67.23
32735;BME280;19112;51.076;3.706;2022-08-21T00:26:46;101465.63;;;16.53;67.53
32735;BME280;19112;51.076;3.706;2022-08-21T00:29:13;101644.34;;;17.53;67.56
32735;BME280;19112;51.076;3.706;2022-08-21T00:31:40;101624.88;;;17.53;67.49
32735;BME280;19112;51.076;3.706;2022-08-21T00:34:07;101452.38;;;16.55;67.77
32735;BME280;19112;51.076;3.706;2022-08-21T00:36:33;101624.81;;;17.50;67.81
32735;BME280;19112;51.076;3.706;2022-08-21T00:39:00;101409.47;;;16.27;67.68
32735;BME280;19112;51.076;3.706;2022-08-21T00:41:27;101455.84;;;16.50;67.59
32735;BME280;19112;51.076;3.706;2022-08-21T00:43:54;101580.97;;;17.23;67.93
32735;BME280;19112;51.076;3.706;2022-08-21T00:46:20;101318.38;;;15.72;67.75
32735;BME280;19112;51.076;3.706;2022-08-21T00:48:46;101459.34;;;16.48;68.04
32735;BME280;19112;51.076;3.706;2022-08-21T00:51:23;101453.94;;;16.43;67.96
32735;BME280;19112;51.076;3.706;2022-08-21T00:53:59;101060.44;;;14.22;67.78
32735;BME280;19112;51.076;3.706;2022-08-21T00:56:28;101650.19;;;17.36;68.29
32735;BME280;19112;51.076;3.706;2022-08-21T00:58:56;101399.38;;;16.08;68.25
32735;BME280;19112;51.076;3.706;2022-08-21T01:01:23;101417.19;;;16.15;68.51
32735;BME280;19112;51.076;3.706;2022-08-21T01:03:50;101624.50;;;17.33;68.64
32735;BME280;19112;51.076;3.706;2022-08-21T01:06:16;101330.56;;;15.65;68.46
32735;BME280;19112;51.076;3.706;2022-08-21T01:08:42;101190.59;;;14.91;68.28
32735;BME280;19112;51.076;3.706;2022-08-21T01:11:08;101463.78;;;16.49;68.38
32735;BME280;19112;51.076;3.706;2022-08-21T01:13:36;101590.44;;;17.09;68.50
32735;BME280;19112;51.076;3.706;2022-08-21T01:16:08;101629.81;;;17.32;68.45
32735;BME280;19112;51.076;3.706;2022-08-21T01:18:34;101084.16;;;14.19;68.44
32735;BME280;19112;51.076;3.706;2022-08-21T01:21:07;101627.94;;;17.27;68.70
32735;BME280;19112;51.076;3.706;2022-08-21T01:23:37;101620.72;;;17.20;68.77
32735;BME280;19112;51.076;3.706;2022-08-21T01:26:04;101407.09;;;15.97;68.79
32735;BME280;19112;51.076;3.706;2022-08-21T01:28:37;101253.53;;;15.09;68.69
32735;BME280;19112;51.076;3.706;2022-08-21T01:31:06;101048.28;;;13.89;68.63
32735;BME280;19112;51.076;3.706;2022-08-21T01:33:34;101079.91;;;13.86;69.06
32735;BME280;19112;51.076;3.706;2022-08-21T01:36:00;101638.31;;;17.14;69.37
32735;BME280;19112;51.076;3.706;2022-08-21T01:38:27;101313.97;;;15.32;69.29
32735;BME280;19112;51.076;3.706;2022-08-21T01:40:53;101362.94;;;15.54;69.58
32735;BME280;19112;51.076;3.706;2022-08-21T01:43:18;101303.25;;;15.26;69.37
32735;BME280;19112;51.076;3.706;2022-08-21T01:45:44;101631.19;;;17.11;69.50
32735;BME280;19112;51.076;3.706;2022-08-21T01:48:10;101172.81;;;14.47;69.33
32735;BME280;19112;51.076;3.706;2022-08-21T01:50:37;101534.53;;;16.53;69.81
32735;BME280;19112;51.076;3.706;2022-08-21T01:53:03;101658.44;;;17.02;69.88
32735;BME280;19112;51.076;3.706;2022-08-21T01:55:29;101623.03;;;17.00;69.99
32735;BME280;19112;51.076;3.706;2022-08-21T01:57:56;101361.06;;;15.48;69.91
32735;BME280;19112;51.076;3.706;2022-08-21T02:00:23;101626.56;;;17.01;70.13
32735;BME280;19112;51.076;3.706;2022-08-21T02:02:49;101305.66;;;15.15;69.87
32735;BME280;19112;51.076;3.706;2022-08-21T02:05:15;101539.66;;;16.44;70.27
32735;BME280;19112;51.076;3.706;2022-08-21T02:07:46;101170.84;;;14.36;70.21
32735;BME280;19112;51.076;3.706;2022-08-21T02:10:19;101535.34;;;16.49;70.68
32735;BME280;19112;51.076;3.706;2022-08-21T02:12:46;101623.72;;;16.92;70.91
32735;BME280;19112;51.076;3.706;2022-08-21T02:15:12;101614.00;;;16.91;70.95
32735;BME280;19112;51.076;3.706;2022-08-21T02:17:49;101485.25;;;16.19;70.65
32735;BME280;19112;51.076;3.706;2022-08-21T02:20:22;101273.56;;;14.98;70.66
32735;BME280;19112;51.076;3.706;2022-08-21T02:22:48;101503.06;;;16.24;71.07
32735;BME280;19112;51.076;3.706;2022-08-21T02:25:16;101614.84;;;16.90;71.19
32735;BME280;19112;51.076;3.706;2022-08-21T02:27:44;101614.91;;;16.93;71.29
32735;BME280;19112;51.076;3.706;2022-08-21T02:30:17;101554.00;;;16.55;71.25
32735;BME280;19112;51.076;3.706;2022-08-21T02:32:43;101066.34;;;13.71;71.26
32735;BME280;19112;51.076;3.706;2022-08-21T02:35:10;101504.94;;;15.89;71.43
32735;BME280;19112;51.076;3.706;2022-08-21T02:38:06;101623.72;;;16.92;71.37
32735;BME280;19112;51.076;3.706;2022-08-21T02:40:35;101548.59;;;16.49;71.40
32735;BME280;19112;51.076;3.706;2022-08-21T02:43:04;101603.16;;;16.79;71.29
32735;BME280;19112;51.076;3.706;2022-08-21T02:45:31;101334.91;;;15.23;71.53
32735;BME280;19112;51.076;3.706;2022-08-21T02:48:01;101347.56;;;15.34;71.20
32735;BME280;19112;51.076;3.706;2022-08-21T02:50:39;101413.50;;;15.64;71.29
32735;BME280;19112;51.076;3.706;2022-08-21T02:53:07;101620.97;;;16.86;71.59
32735;BME280;19112;51.076;3.706;2022-08-21T02:55:35;101340.22;;;15.23;71.64
32735;BME280;19112;51.076;3.706;2022-08-21T02:58:05;101124.22;;;14.01;71.74
32735;BME280;19112;51.076;3.706;2022-08-21T03:00:32;101624.38;;;16.80;71.83
32735;BME280;19112;51.076;3.706;2022-08-21T03:02:59;101618.16;;;16.78;71.92
32735;BME280;19112;51.076;3.706;2022-08-21T03:05:28;101336.63;;;15.19;71.83
32735;BME280;19112;51.076;3.706;2022-08-21T03:07:54;101478.72;;;16.02;71.87
32735;BME280;19112;51.076;3.706;2022-08-21T03:10:22;101349.22;;;15.31;71.94
32735;BME280;19112;51.076;3.706;2022-08-21T03:12:48;101276.75;;;14.83;72.12
32735;BME280;19112;51.076;3.706;2022-08-21T03:15:20;101603.03;;;16.72;72.06
32735;BME280;19112;51.076;3.706;2022-08-21T03:17:47;101400.13;;;15.60;72.00
32735;BME280;19112;51.076;3.706;2022-08-21T03:20:16;101597.75;;;16.74;72.01
32735;BME280;19112;51.076;3.706;2022-08-21T03:22:42;101249.31;;;14.77;72.01
32735;BME280;19112;51.076;3.706;2022-08-21T03:25:09;101334.00;;;15.20;71.99
32735;BME280;19112;51.076;3.706;2022-08-21T03:27:36;101337.66;;;15.26;72.40
32735;BME280;19112;51.076;3.706;2022-08-21T03:30:06;101292.97;;;14.99;72.28
32735;BME280;19112;51.076;3.706;2022-08-21T03:32:32;101578.00;;;16.61;72.64
32735;BME280;19112;51.076;3.706;2022-08-21T03:34:58;101274.34;;;14.94;72.41
32735;BME280;19112;51.076;3.706;2022-08-21T03:37:26;101584.25;;;16.63;72.74
32735;BME280;19112;51.076;3.706;2022-08-21T03:39:52;101521.88;;;16.38;72.63
32735;BME280;19112;51.076;3.706;2022-08-21T03:42:18;101442.19;;;15.85;72.67
32735;BME280;19112;51.076;3.706;2022-08-21T03:44:44;101488.66;;;16.12;72.79
32735;BME280;19112;51.076;3.706;2022-08-21T03:47:10;101560.06;;;16.48;72.74
32735;BME280;19112;51.076;3.706;2022-08-21T03:49:36;101577.94;;;16.57;72.78
32735;BME280;19112;51.076;3.706;2022-08-21T03:52:03;101541.31;;;16.39;72.65
32735;BME280;19112;51.076;3.706;2022-08-21T03:54:29;101417.91;;;15.64;72.78
32735;BME280;19112;51.076;3.706;2022-08-21T03:56:55;101411.66;;;15.62;72.92
32735;BME280;19112;51.076;3.706;2022-08-21T03:59:21;101402.66;;;15.55;72.86
32735;BME280;19112;51.076;3.706;2022-08-21T04:01:59;101491.16;;;16.04;73.08
32735;BME280;19112;51.076;3.706;2022-08-21T04:04:27;101527.78;;;16.25;73.14
32735;BME280;19112;51.076;3.706;2022-08-21T04:06:54;101517.75;;;16.10;73.31
32735;BME280;19112;51.076;3.706;2022-08-21T04:09:20;101271.97;;;14.67;73.22
32735;BME280;19112;51.076;3.706;2022-08-21T04:11:46;101480.84;;;15.77;73.22
32735;BME280;19112;51.076;3.706;2022-08-21T04:14:14;101399.34;;;15.25;73.34
32735;BME280;19112;51.076;3.706;2022-08-21T04:16:41;101331.53;;;14.89;73.38
32735;BME280;19112;51.076;3.706;2022-08-21T04:19:08;101319.03;;;14.82;73.51
32735;BME280;19112;51.076;3.706;2022-08-21T04:21:36;101501.94;;;15.73;73.50
32735;BME280;19112;51.076;3.706;2022-08-21T04:24:04;101558.03;;;15.95;73.66
32735;BME280;19112;51.076;3.706;2022-08-21T04:26:31;101533.34;;;15.96;73.84
32735;BME280;19112;51.076;3.706;2022-08-21T04:28:57;101389.41;;;15.14;73.68
32735;BME280;19112;51.076;3.706;2022-08-21T04:31:24;101475.06;;;15.57;73.89
32735;BME280;19112;51.076;3.706;2022-08-21T04:33:50;101589.31;;;16.12;73.99
32735;BME280;19112;51.076;3.706;2022-08-21T04:36:17;101626.09;;;16.37;74.10
32735;BME280;19112;51.076;3.706;2022-08-21T04:38:43;101336.47;;;14.75;74.17
32735;BME280;19112;51.076;3.706;2022-08-21T04:41:09;101331.16;;;14.74;74.04
32735;BME280;19112;51.076;3.706;2022-08-21T04:43:35;101641.03;;;16.34;74.25
32735;BME280;19112;51.076;3.706;2022-08-21T04:46:01;101613.63;;;16.33;74.53
32735;BME280;19112;51.076;3.706;2022-08-21T04:48:27;101461.66;;;15.50;74.13
32735;BME280;19112;51.076;3.706;2022-08-21T04:51:17;101234.75;;;14.22;74.18
32735;BME280;19112;51.076;3.706;2022-08-21T04:54:17;101531.53;;;15.94;74.17
32735;BME280;19112;51.076;3.706;2022-08-21T04:56:52;101636.81;;;16.42;74.35
32735;BME280;19112;51.076;3.706;2022-08-21T04:59:33;101581.47;;;16.16;74.28
32735;BME280;19112;51.076;3.706;2022-08-21T05:02:02;101629.78;;;16.44;74.23
32735;BME280;19112;51.076;3.706;2022-08-21T05:04:31;101535.69;;;15.83;74.22
32735;BME280;19112;51.076;3.706;2022-08-21T05:07:02;101504.63;;;15.76;74.29
32735;BME280;19112;51.076;3.706;2022-08-21T05:09:29;101579.59;;;16.11;74.31
32735;BME280;19112;51.076;3.706;2022-08-21T05:11:55;101628.22;;;16.54;74.29
32735;BME280;19112;51.076;3.706;2022-08-21T05:14:22;101474.38;;;15.64;74.21
32735;BME280;19112;51.076;3.706;2022-08-21T05:16:47;101642.50;;;16.60;74.01
32735;BME280;19112;51.076;3.706;2022-08-21T05:19:13;101633.66;;;16.61;74.09
32735;BME280;19112;51.076;3.706;2022-08-21T05:21:43;101382.59;;;15.24;73.73
32735;BME280;19112;51.076;3.706;2022-08-21T05:24:10;101278.16;;;14.67;73.50
32735;BME280;19112;51.076;3.706;2022-08-21T05:26:37;101590.97;;;16.47;73.72
32735;BME280;19112;51.076;3.706;2022-08-21T05:29:04;101319.53;;;15.05;73.46
32735;BME280;19112;51.076;3.706;2022-08-21T05:31:30;101419.69;;;15.65;73.45
32735;BME280;19112;51.076;3.706;2022-08-21T05:33:56;101512.72;;;16.22;73.62
32735;BME280;19112;51.076;3.706;2022-08-21T05:36:23;101423.41;;;15.75;73.47
32735;BME280;19112;51.076;3.706;2022-08-21T05:38:49;101311.69;;;15.08;73.33
32735;BME280;19112;51.076;3.706;2022-08-21T05:41:14;101349.25;;;15.32;73.23
32735;BME280;19112;51.076;3.706;2022-08-21T05:43:40;101533.38;;;16.40;73.32
32735;BME280;19112;51.076;3.706;2022-08-21T05:46:07;101280.50;;;14.93;73.06
32735;BME280;19112;51.076;3.706;2022-08-21T05:48:35;101610.28;;;16.83;73.13
32735;BME280;19112;51.076;3.706;2022-08-21T05:51:15;101643.50;;;17.08;73.12
32735;BME280;19112;51.076;3.706;2022-08-21T05:53:42;101658.66;;;17.15;72.96
32735;BME280;19112;51.076;3.706;2022-08-21T05:56:09;101471.19;;;16.21;73.15
32735;BME280;19112;51.076;3.706;2022-08-21T05:58:35;101149.31;;;14.20;72.72
32735;BME280;19112;51.076;3.706;2022-08-21T06:01:02;101605.47;;;17.07;73.12
32735;BME280;19112;51.076;3.706;2022-08-21T06:03:32;101369.69;;;15.79;72.85
32735;BME280;19112;51.076;3.706;2022-08-21T06:06:00;101255.53;;;15.19;72.92
32735;BME280;19112;51.076;3.706;2022-08-21T06:08:27;101653.91;;;17.44;72.89
32735;BME280;19112;51.076;3.706;2022-08-21T06:10:57;101641.59;;;17.47;73.17
32735;BME280;19112;51.076;3.706;2022-08-21T06:13:24;101644.28;;;17.52;73.29
32735;BME280;19112;51.076;3.706;2022-08-21T06:16:08;101415.69;;;16.29;73.04
32735;BME280;19112;51.076;3.706;2022-08-21T06:18:36;101396.22;;;16.27;73.21
32735;BME280;19112;51.076;3.706;2022-08-21T06:21:03;101470.44;;;16.72;73.01
32735;BME280;19112;51.076;3.706;2022-08-21T06:23:29;101580.34;;;17.37;73.38
32735;BME280;19112;51.076;3.706;2022-08-21T06:25:55;101631.47;;;17.75;73.22
32735;BME280;19112;51.076;3.706;2022-08-21T06:28:22;101585.94;;;17.55;73.06
32735;BME280;19112;51.076;3.706;2022-08-21T06:30:47;101479.72;;;16.99;73.44
32735;BME280;19112;51.076;3.706;2022-08-21T06:33:13;101567.44;;;17.60;73.31
32735;BME280;19112;51.076;3.706;2022-08-21T06:35:39;101368.34;;;16.50;73.03
32735;BME280;19112;51.076;3.706;2022-08-21T06:38:05;101480.13;;;17.22;72.91
32735;BME280;19112;51.076;3.706;2022-08-21T06:40:31;101478.56;;;17.36;72.91
32735;BME280;19112;51.076;3.706;2022-08-21T06:42:58;101574.91;;;17.84;72.97
32735;BME280;19112;51.076;3.706;2022-08-21T06:45:33;101227.16;;;16.05;72.63
32735;BME280;19112;51.076;3.706;2022-08-21T06:47:59;101411.13;;;17.22;72.72
32735;BME280;19112;51.076;3.706;2022-08-21T06:50:25;101639.81;;;18.60;72.53
32735;BME280;19112;51.076;3.706;2022-08-21T06:53:09;101489.88;;;17.80;72.46
32735;BME280;19112;51.076;3.706;2022-08-21T06:55:36;101580.97;;;18.36;72.42
32735;BME280;19112;51.076;3.706;2022-08-21T06:58:03;101470.53;;;17.91;72.25
32735;BME280;19112;51.076;3.706;2022-08-21T07:00:29;101553.75;;;18.58;71.80
32735;BME280;19112;51.076;3.706;2022-08-21T07:02:55;101562.88;;;18.77;71.57
32735;BME280;19112;51.076;3.706;2022-08-21T07:05:22;101642.47;;;19.34;71.36
32735;BME280;19112;51.076;3.706;2022-08-21T07:07:50;101639.03;;;19.48;71.11
32735;BME280;19112;51.076;3.706;2022-08-21T07:10:16;101415.13;;;18.26;70.41
32735;BME280;19112;51.076;3.706;2022-08-21T07:12:41;101057.00;;;16.22;69.99
32735;BME280;19112;51.076;3.706;2022-08-21T07:15:08;101131.78;;;16.65;70.37
32735;BME280;19112;51.076;3.706;2022-08-21T07:17:34;101653.59;;;19.86;69.77
32735;BME280;19112;51.076;3.706;2022-08-21T07:20:00;101615.34;;;19.81;69.50
32735;BME280;19112;51.076;3.706;2022-08-21T07:22:26;101516.47;;;19.43;68.95
32735;BME280;19112;51.076;3.706;2022-08-21T07:24:54;101433.66;;;19.06;68.54
32735;BME280;19112;51.076;3.706;2022-08-21T07:27:20;101601.38;;;20.14;68.07
32735;BME280;19112;51.076;3.706;2022-08-21T07:29:46;101544.38;;;19.93;67.76
32735;BME280;19112;51.076;3.706;2022-08-21T07:32:12;101572.06;;;20.16;67.33
32735;BME280;19112;51.076;3.706;2022-08-21T07:34:38;101409.00;;;19.33;66.83
32735;BME280;19112;51.076;3.706;2022-08-21T07:37:04;101538.25;;;20.12;66.59
32735;BME280;19112;51.076;3.706;2022-08-21T07:39:30;101358.25;;;19.10;66.42
32735;BME280;19112;51.076;3.706;2022-08-21T07:41:55;101349.44;;;19.16;66.01
32735;BME280;19112;51.076;3.706;2022-08-21T07:44:21;101569.50;;;20.44;65.90
32735;BME280;19112;51.076;3.706;2022-08-21T07:46:47;101565.03;;;20.38;65.81
32735;BME280;19112;51.076;3.706;2022-08-21T07:49:13;101343.16;;;19.06;65.88
32735;BME280;19112;51.076;3.706;2022-08-21T07:51:38;101599.84;;;20.59;65.83
32735;BME280;19112;51.076;3.706;2022-08-21T07:54:04;101650.69;;;20.90;66.09
32735;BME280;19112;51.076;3.706;2022-08-21T07:56:31;101429.63;;;19.65;65.86
32735;BME280;19112;51.076;3.706;2022-08-21T07:58:57;101646.22;;;20.92;65.96
32735;BME280;19112;51.076;3.706;2022-08-21T08:01:24;101596.28;;;20.56;65.90
32735;BME280;19112;51.076;3.706;2022-08-21T08:03:50;101397.69;;;19.68;65.74
32735;BME280;19112;51.076;3.706;2022-08-21T08:06:16;101388.78;;;19.65;65.64
32735;BME280;19112;51.076;3.706;2022-08-21T08:08:44;101500.16;;;20.36;65.16
32735;BME280;19112;51.076;3.706;2022-08-21T08:11:12;101647.22;;;21.22;64.95
32735;BME280;19112;51.076;3.706;2022-08-21T08:13:46;101402.16;;;19.81;64.53
32735;BME280;19112;51.076;3.706;2022-08-21T08:16:13;101370.16;;;19.72;64.60
32735;BME280;19112;51.076;3.706;2022-08-21T08:18:39;101469.03;;;20.38;64.26
32735;BME280;19112;51.076;3.706;2022-08-21T08:21:07;101654.41;;;21.36;64.91
32735;BME280;19112;51.076;3.706;2022-08-21T08:23:33;101581.28;;;21.02;64.58
32735;BME280;19112;51.076;3.706;2022-08-21T08:25:59;101393.38;;;20.04;64.29
32735;BME280;19112;51.076;3.706;2022-08-21T08:28:25;101361.34;;;19.95;64.11
32735;BME280;19112;51.076;3.706;2022-08-21T08:30:52;101372.91;;;20.01;64.22
32735;BME280;19112;51.076;3.706;2022-08-21T08:33:18;101669.56;;;21.66;64.27
32735;BME280;19112;51.076;3.706;2022-08-21T08:35:47;101484.25;;;20.74;64.11
32735;BME280;19112;51.076;3.706;2022-08-21T08:38:15;101649.06;;;21.82;63.81
32735;BME280;19112;51.076;3.706;2022-08-21T08:41:18;101642.84;;;21.89;63.46
32735;BME280;19112;51.076;3.706;2022-08-21T08:44:03;101692.75;;;22.06;63.34
32735;BME280;19112;51.076;3.706;2022-08-21T08:46:47;101649.06;;;22.30;61.90
32735;BME280;19112;51.076;3.706;2022-08-21T08:49:15;101645.47;;;22.43;60.35
32735;BME280;19112;51.076;3.706;2022-08-21T08:51:56;101645.38;;;22.70;60.51
32735;BME280;19112;51.076;3.706;2022-08-21T08:54:41;101587.34;;;22.71;59.94
32735;BME280;19112;51.076;3.706;2022-08-21T08:57:21;101634.34;;;23.27;57.67
32735;BME280;19112;51.076;3.706;2022-08-21T08:59:53;101436.78;;;22.29;57.71
32735;BME280;19112;51.076;3.706;2022-08-21T09:02:22;101511.38;;;22.92;56.60
32735;BME280;19112;51.076;3.706;2022-08-21T09:04:53;101376.28;;;22.11;56.15
32735;BME280;19112;51.076;3.706;2022-08-21T09:07:40;101633.06;;;23.83;55.41
32735;BME280;19112;51.076;3.706;2022-08-21T09:10:18;101632.97;;;23.94;54.75
32735;BME280;19112;51.076;3.706;2022-08-21T09:18:54;101483.63;;;23.00;55.56
32735;BME280;19112;51.076;3.706;2022-08-21T09:21:50;101636.59;;;23.88;55.89
32735;BME280;19112;51.076;3.706;2022-08-21T09:24:32;101628.72;;;23.71;56.05
32735;BME280;19112;51.076;3.706;2022-08-21T09:27:11;101629.56;;;23.75;56.00
32735;BME280;19112;51.076;3.706;2022-08-21T09:29:43;101569.97;;;23.38;55.46
32735;BME280;19112;51.076;3.706;2022-08-21T09:32:25;101568.13;;;23.46;55.92
32735;BME280;19112;51.076;3.706;2022-08-21T09:35:17;101392.78;;;22.71;56.20
32735;BME280;19112;51.076;3.706;2022-08-21T09:38:01;101621.09;;;24.18;54.89
32735;BME280;19112;51.076;3.706;2022-08-21T09:45:39;101408.03;;;23.60;52.03
32735;BME280;19112;51.076;3.706;2022-08-21T09:48:24;101399.78;;;23.78;50.71
32735;BME280;19112;51.076;3.706;2022-08-21T09:50:51;101613.78;;;25.04;51.55
32735;BME280;19112;51.076;3.706;2022-08-21T09:53:30;101513.31;;;24.53;51.91
32735;BME280;19112;51.076;3.706;2022-08-21T09:56:05;101617.88;;;25.33;51.12
32735;BME280;19112;51.076;3.706;2022-08-21T09:58:59;101562.59;;;25.14;50.82
32735;BME280;19112;51.076;3.706;2022-08-21T10:01:26;100909.06;;;21.39;49.62
32735;BME280;19112;51.076;3.706;2022-08-21T10:04:07;101568.72;;;25.25;50.51
32735;BME280;19112;51.076;3.706;2022-08-21T10:06:34;101302.38;;;23.75;49.39
32735;BME280;19112;51.076;3.706;2022-08-21T10:09:10;101592.28;;;25.61;48.52
32735;BME280;19112;51.076;3.706;2022-08-21T10:11:37;101607.44;;;25.67;48.84
32735;BME280;19112;51.076;3.706;2022-08-21T10:14:41;101408.75;;;24.44;48.72
32735;BME280;19112;51.076;3.706;2022-08-21T10:25:41;101525.44;;;25.40;47.39
32735;BME280;19112;51.076;3.706;2022-08-21T10:31:21;101587.88;;;25.59;47.08
32735;BME280;19112;51.076;3.706;2022-08-21T10:36:46;101581.09;;;25.33;47.07
32735;BME280;19112;51.076;3.706;2022-08-21T10:39:42;101468.00;;;24.90;46.75
32735;BME280;19112;51.076;3.706;2022-08-21T10:48:11;101581.31;;;25.21;47.74
32735;BME280;19112;51.076;3.706;2022-08-21T10:50:51;101596.16;;;25.47;47.12
32735;BME280;19112;51.076;3.706;2022-08-21T10:59:20;101592.50;;;26.02;46.61
32735;BME280;19112;51.076;3.706;2022-08-21T11:04:39;101565.06;;;25.81;46.81
32735;BME280;19112;51.076;3.706;2022-08-21T11:07:28;101422.00;;;25.12;46.25
32735;BME280;19112;51.076;3.706;2022-08-21T11:09:57;101367.69;;;24.91;45.35
32735;BME280;19112;51.076;3.706;2022-08-21T11:12:43;101545.72;;;26.07;45.85
32735;BME280;19112;51.076;3.706;2022-08-21T11:18:34;101544.25;;;25.91;45.58
32735;BME280;19112;51.076;3.706;2022-08-21T11:26:58;101556.19;;;25.76;45.97
32735;BME280;19112;51.076;3.706;2022-08-21T11:29:37;101557.16;;;25.71;45.67
32735;BME280;19112;51.076;3.706;2022-08-21T11:32:37;101585.72;;;25.81;46.43
32735;BME280;19112;51.076;3.706;2022-08-21T11:35:32;101177.63;;;23.49;46.35
32735;BME280;19112;51.076;3.706;2022-08-21T11:38:15;101606.25;;;25.86;45.67
32735;BME280;19112;51.076;3.706;2022-08-21T11:43:42;101441.00;;;24.99;46.43
32735;BME280;19112;51.076;3.706;2022-08-21T11:52:34;101530.50;;;25.58;45.67
32735;BME280;19112;51.076;3.706;2022-08-21T11:58:44;101608.31;;;26.19;44.73
32735;BME280;19112;51.076;3.706;2022-08-21T12:01:16;101438.78;;;25.26;44.49
32735;BME280;19112;51.076;3.706;2022-08-21T12:04:08;101502.69;;;25.59;43.67
32735;BME280;19112;51.076;3.706;2022-08-21T12:06:40;101369.25;;;25.06;43.43
32735;BME280;19112;51.076;3.706;2022-08-21T12:09:30;101482.47;;;25.86;43.37
32735;BME280;19112;51.076;3.706;2022-08-21T12:12:26;101552.25;;;26.42;42.31
32735;BME280;19112;51.076;3.706;2022-08-21T12:15:07;101595.56;;;26.73;42.33
32735;BME280;19112;51.076;3.706;2022-08-21T12:17:40;101359.59;;;25.41;41.80
32735;BME280;19112;51.076;3.706;2022-08-21T12:23:03;101463.03;;;26.16;41.59
32735;BME280;19112;51.076;3.706;2022-08-21T12:25:47;101500.78;;;26.54;42.05
32735;BME280;19112;51.076;3.706;2022-08-21T12:28:24;101563.59;;;26.95;41.87
32735;BME280;19112;51.076;3.706;2022-08-21T12:30:51;101518.28;;;26.75;41.93
32735;BME280;19112;51.076;3.706;2022-08-21T12:33:37;101534.44;;;26.75;42.43
32735;BME280;19112;51.076;3.706;2022-08-21T12:36:16;101531.03;;;27.07;42.23
32735;BME280;19112;51.076;3.706;2022-08-21T12:39:04;101602.69;;;27.89;40.94
32735;BME280;19112;51.076;3.706;2022-08-21T12:42:06;101578.81;;;28.06;39.79
32735;BME280;19112;51.076;3.706;2022-08-21T12:44:59;101401.53;;;27.10;39.96
32735;BME280;19112;51.076;3.706;2022-08-21T12:47:35;101561.16;;;27.94;39.84
32735;BME280;19112;51.076;3.706;2022-08-21T12:50:11;101571.13;;;27.92;40.63
32735;BME280;19112;51.076;3.706;2022-08-21T12:52:59;101471.47;;;27.51;39.65
32735;BME280;19112;51.076;3.706;2022-08-21T12:55:32;101518.63;;;27.68;38.94
32735;BME280;19112;51.076;3.706;2022-08-21T12:57:59;101588.91;;;28.00;39.69
32735;BME280;19112;51.076;3.706;2022-08-21T13:00:28;101573.22;;;27.81;39.71
32735;BME280;19112;51.076;3.706;2022-08-21T13:02:55;101518.28;;;27.48;40.33
32735;BME280;19112;51.076;3.706;2022-08-21T13:05:33;101525.03;;;27.64;40.25
32735;BME280;19112;51.076;3.706;2022-08-21T13:08:09;101517.88;;;27.63;39.97
32735;BME280;19112;51.076;3.706;2022-08-21T13:10:38;101594.81;;;28.14;39.43
32735;BME280;19112;51.076;3.706;2022-08-21T13:13:10;101481.84;;;27.64;39.27
32735;BME280;19112;51.076;3.706;2022-08-21T13:15:39;101449.41;;;27.67;39.88
32735;BME280;19112;51.076;3.706;2022-08-21T13:18:07;101402.38;;;27.45;39.43
32735;BME280;19112;51.076;3.706;2022-08-21T13:20:38;101457.06;;;27.84;38.73
32735;BME280;19112;51.076;3.706;2022-08-21T13:23:26;101378.94;;;27.47;38.90
32735;BME280;19112;51.076;3.706;2022-08-21T13:25:54;101434.22;;;27.63;38.66
32735;BME280;19112;51.076;3.706;2022-08-21T13:28:20;101547.81;;;28.52;37.77
32735;BME280;19112;51.076;3.706;2022-08-21T13:30:54;101322.28;;;27.16;38.25
32735;BME280;19112;51.076;3.706;2022-08-21T13:33:24;101546.19;;;28.47;38.74
32735;BME280;19112;51.076;3.706;2022-08-21T13:38:40;101309.34;;;26.95;38.12
32735;BME280;19112;51.076;3.706;2022-08-21T13:43:50;101515.53;;;28.16;37.81
32735;BME280;19112;51.076;3.706;2022-08-21T13:46:17;101576.53;;;28.55;37.86
32735;BME280;19112;51.076;3.706;2022-08-21T13:48:46;101562.13;;;28.56;37.76
32735;BME280;19112;51.076;3.706;2022-08-21T13:51:12;101569.88;;;28.37;38.52
32735;BME280;19112;51.076;3.706;2022-08-21T13:56:08;101174.38;;;26.04;38.86
32735;BME280;19112;51.076;3.706;2022-08-21T13:58:46;101557.72;;;28.20;38.70
32735;BME280;19112;51.076;3.706;2022-08-21T14:01:50;101336.25;;;26.98;39.47
32735;BME280;19112;51.076;3.706;2022-08-21T14:04:51;101531.06;;;28.08;38.91
32735;BME280;19112;51.076;3.706;2022-08-21T14:07:40;101559.19;;;28.34;39.01
32735;BME280;19112;51.076;3.706;2022-08-21T14:12:49;101303.66;;;26.73;39.64
32735;BME280;19112;51.076;3.706;2022-08-21T14:15:20;101385.31;;;27.12;39.11
32735;BME280;19112;51.076;3.706;2022-08-21T14:17:47;101556.72;;;28.25;39.52
32735;BME280;19112;51.076;3.706;2022-08-21T14:20:32;101311.16;;;26.94;39.35
32735;BME280;19112;51.076;3.706;2022-08-21T14:22:58;101278.34;;;26.80;39.23
32735;BME280;19112;51.076;3.706;2022-08-21T14:28:15;101430.13;;;27.50;39.41
32735;BME280;19112;51.076;3.706;2022-08-21T14:30:44;101416.53;;;27.21;39.94